ストックホルム/アーランダ の空港の天気 - METARとTAF

ストックホルム・アーランダ空港 ( ESSA / ARN ) - スウェーデン ストックホルム
飛行場実況気象(Metar)
観測時間07/29 04:20 CEST (07/29 02:20 UTC)
風向・風速西南西 3m/s
視程10km以上
天気現象
少しの雲 雲底高度 270m
全天の8割程度の雲 雲底高度 2740m
全天を覆う雲 雲底高度 3050m
気温15℃
湿度100%
気圧1002hPa
METARESSA 290220Z 25006KT 9999 FEW009 BKN090 OVC100 15/15 Q1002 NOSIG
過去の天気等 Google飛行場航空写真 Wunderground天気予報

過去48時間のMETAR

飛行場予報(TAF)
発表時間: 7/29 01:30 CEST (7/28 23:30 UTC)
予報対象時間: 29日2時 CEST ~ 30日2時 CEST
風向・風速西南西 3m/s
視程10km以上
全天の4割程度の雲 雲底高度 1070m
29日3時 CEST から 確率 40% で
視程2000m
天気現象もや
29日14時 CEST から 確率 40% で
天気現象しゅう雨
全天の8割程度の積乱雲 雲底高度 1070m
TAF ESSA 282330Z 2900/2924 25005KT 9999 SCT035
PROB40 2901/2904 2000 BR
PROB40 2912/2918 SHRA BKN035CB